Time;durP1;ratioP1;P1;durP2;ratioP2;P2;SDS_P1;SDS_P2;PMS_P1;PMS_P2;Temp;Humidity;BMP_temperature;BMP_pressure;BME280_temperature;BME280_humidity;BME280_pressure;Samples;Min_cycle;Max_cycle;Signal;HPM_P1;HPM_P2
2021/05/04 00:02:00;;;;;;;4.45;2.85;;;12.90;73.40;;;;;;4192410;28;20496;-70
2021/05/04 00:04:00;;;;;;;10.25;3.10;;;12.90;70.70;;;;;;4190905;28;20036;-70
2021/05/04 00:06:01;;;;;;;4.63;3.05;;;12.90;72.10;;;;;;4192360;28;20488;-70
2021/05/04 00:08:02;;;;;;;4.88;2.53;;;13.00;71.80;;;;;;4190633;28;20037;-70
2021/05/04 00:10:03;;;;;;;5.57;2.67;;;12.90;70.50;;;;;;4192189;28;20107;-70
2021/05/04 00:12:04;;;;;;;5.80;2.60;;;12.90;70.40;;;;;;4192430;28;20052;-70
2021/05/04 00:14:04;;;;;;;5.20;2.55;;;13.00;71.80;;;;;;4190642;28;20041;-70
2021/05/04 00:16:05;;;;;;;12.43;3.05;;;13.00;71.00;;;;;;4192932;28;20037;-70
2021/05/04 00:18:06;;;;;;;5.97;2.35;;;13.00;72.50;;;;;;4192549;28;20063;-70
2021/05/04 00:20:07;;;;;;;5.55;2.35;;;13.10;70.90;;;;;;4192088;28;20037;-70
2021/05/04 00:22:08;;;;;;;4.18;2.70;;;13.00;70.20;;;;;;4192748;28;20049;-70
2021/05/04 00:24:09;;;;;;;9.02;2.63;;;13.00;69.90;;;;;;4192400;28;20044;-70
2021/05/04 00:26:10;;;;;;;3.75;2.35;;;13.10;71.40;;;;;;4192881;28;20079;-70
2021/05/04 00:28:11;;;;;;;5.55;2.03;;;13.10;71.20;;;;;;4190571;28;20117;-70
2021/05/04 00:30:12;;;;;;;4.53;1.92;;;13.10;69.80;;;;;;4192252;28;20033;-70
2021/05/04 00:32:13;;;;;;;9.50;2.30;;;13.10;70.00;;;;;;4192426;28;20056;-70
2021/05/04 00:34:14;;;;;;;4.22;2.03;;;13.10;69.70;;;;;;4192394;28;20105;-70
2021/05/04 00:36:14;;;;;;;8.43;2.03;;;13.10;70.60;;;;;;4190682;28;20408;-67
2021/05/04 00:38:15;;;;;;;7.15;2.22;;;13.20;69.90;;;;;;4192133;28;20059;-67
2021/05/04 00:40:16;;;;;;;4.38;2.20;;;13.20;70.20;;;;;;4192483;28;20582;-68
2021/05/04 00:42:16;;;;;;;13.88;2.58;;;13.20;69.90;;;;;;4192443;28;20039;-67
2021/05/04 00:44:17;;;;;;;7.13;1.98;;;13.20;69.80;;;;;;4192114;28;20238;-67
2021/05/04 00:46:18;;;;;;;5.15;2.13;;;13.20;70.20;;;;;;4192081;28;20047;-68
2021/05/04 00:48:18;;;;;;;4.43;1.92;;;13.30;69.90;;;;;;4173596;28;20037;-68
2021/05/04 00:50:19;;;;;;;3.97;2.00;;;13.30;68.10;;;;;;4190296;28;20033;-67
2021/05/04 00:52:20;;;;;;;2.28;1.50;;;13.40;69.30;;;;;;4190530;28;20130;-68
2021/05/04 00:54:21;;;;;;;3.92;1.70;;;13.40;68.80;;;;;;4191538;28;20041;-67
2021/05/04 00:56:23;;;;;;;3.35;1.38;;;13.40;68.30;;;;;;4190486;28;20391;-68
2021/05/04 00:58:24;;;;;;;8.05;2.15;;;13.50;68.70;;;;;;4190339;28;20158;-68
2021/05/04 01:00:24;;;;;;;5.65;1.92;;;13.50;68.10;;;;;;4192145;28;20576;-67
2021/05/04 01:02:25;;;;;;;4.90;1.75;;;13.50;68.00;;;;;;4190680;28;20029;-68
2021/05/04 01:04:26;;;;;;;4.30;1.70;;;13.50;67.90;;;;;;4191942;28;20029;-67
2021/05/04 01:06:27;;;;;;;8.05;1.65;;;13.60;67.10;;;;;;4192093;28;20041;-68
2021/05/04 01:08:28;;;;;;;6.93;1.58;;;13.60;67.20;;;;;;4190612;28;20045;-68
2021/05/04 01:10:28;;;;;;;5.13;1.80;;;13.60;68.00;;;;;;4192014;28;20488;-68
2021/05/04 01:12:29;;;;;;;3.58;1.83;;;13.70;66.70;;;;;;4191642;28;20037;-68
2021/05/04 01:14:29;;;;;;;5.88;1.60;;;13.60;66.30;;;;;;4190254;28;20468;-70
2021/05/04 01:16:30;;;;;;;7.75;1.60;;;13.60;66.60;;;;;;4192247;28;20040;-70
2021/05/04 01:18:31;;;;;;;4.90;1.60;;;13.70;64.40;;;;;;4190252;28;20199;-70
2021/05/04 01:20:32;;;;;;;7.07;1.60;;;13.70;65.20;;;;;;4193132;28;20063;-70
2021/05/04 01:22:33;;;;;;;4.43;1.40;;;13.80;67.90;;;;;;4195794;28;20495;-70
2021/05/04 01:24:33;;;;;;;2.17;1.40;;;13.80;66.60;;;;;;4194656;28;20036;-70
2021/05/04 01:26:34;;;;;;;8.50;1.77;;;13.80;67.00;;;;;;4195520;28;20033;-70
2021/05/04 01:28:35;;;;;;;5.20;1.80;;;13.80;66.10;;;;;;4194965;28;20102;-70
2021/05/04 01:30:35;;;;;;;4.68;1.52;;;13.70;66.40;;;;;;4195097;28;20025;-70
2021/05/04 01:32:36;;;;;;;8.13;1.48;;;13.70;65.90;;;;;;4195484;28;20056;-70
2021/05/04 01:34:37;;;;;;;5.75;1.52;;;13.60;70.30;;;;;;4194582;28;20029;-70
2021/05/04 01:36:38;;;;;;;6.32;1.20;;;13.60;73.20;;;;;;4193250;28;20039;-70
2021/05/04 01:38:39;;;;;;;8.55;2.17;;;13.50;70.50;;;;;;4194188;28;20040;-69
2021/05/04 01:40:40;;;;;;;10.40;1.38;;;13.30;72.40;;;;;;4194411;28;20032;-70
2021/05/04 01:42:44;;;;;;;9.48;2.05;;;13.30;74.80;;;;;;4192980;28;20053;-70
2021/05/04 01:44:45;;;;;;;8.32;1.42;;;13.10;78.30;;;;;;4193745;28;20036;-70
2021/05/04 01:46:46;;;;;;;10.40;1.65;;;13.00;78.80;;;;;;4194696;28;20411;-70
2021/05/04 01:48:46;;;;;;;8.60;1.73;;;12.90;80.80;;;;;;4192709;28;20101;-69
2021/05/04 01:50:47;;;;;;;11.20;2.40;;;12.70;83.50;;;;;;4194100;28;20048;-70
2021/05/04 01:52:48;;;;;;;13.32;2.05;;;12.50;86.80;;;;;;4194223;28;20048;-70
2021/05/04 01:54:49;;;;;;;3.72;1.63;;;12.50;89.80;;;;;;4194442;28;20028;-69
2021/05/04 01:56:51;;;;;;;1.95;1.55;;;12.40;94.10;;;;;;4194086;28;20041;-69
2021/05/04 01:58:56;;;;;;;7.35;1.30;;;12.20;95.50;;;;;;4194964;28;20044;-70
2021/05/04 02:00:56;;;;;;;6.25;1.50;;;12.10;97.90;;;;;;4194644;28;20024;-69
2021/05/04 02:02:57;;;;;;;4.40;1.40;;;12.10;99.90;;;;;;4194723;28;20101;-70
2021/05/04 02:04:58;;;;;;;6.30;1.70;;;12.00;99.90;;;;;;4193601;28;20037;-70
2021/05/04 02:07:02;;;;;;;9.05;1.50;;;11.90;99.90;;;;;;4192532;28;20057;-69
2021/05/04 02:09:08;;;;;;;8.57;1.25;;;11.80;99.90;;;;;;4193800;28;20072;-69
2021/05/04 02:11:08;;;;;;;7.63;1.40;;;11.70;99.90;;;;;;4194117;28;20039;-69
2021/05/04 02:13:09;;;;;;;5.15;1.58;;;11.60;99.90;;;;;;4194284;28;20036;-69
2021/05/04 02:15:10;;;;;;;6.35;1.50;;;11.50;99.90;;;;;;4194116;28;20039;-69
2021/05/04 02:17:11;;;;;;;3.30;1.13;;;11.30;99.90;;;;;;4194291;28;20393;-69
2021/05/04 02:19:11;;;;;;;3.08;1.38;;;11.30;99.90;;;;;;4193944;28;20048;-69
2021/05/04 02:21:12;;;;;;;2.72;1.30;;;11.30;99.90;;;;;;4194106;28;20037;-69
2021/05/04 02:23:13;;;;;;;5.60;1.30;;;11.20;99.90;;;;;;4193730;28;20043;-69
2021/05/04 02:25:14;;;;;;;4.28;1.42;;;11.10;99.90;;;;;;4192211;28;20151;-69
2021/05/04 02:27:14;;;;;;;5.53;1.80;;;11.00;99.90;;;;;;4192880;28;20119;-69
2021/05/04 02:29:15;;;;;;;3.35;1.60;;;11.00;99.90;;;;;;4192221;28;20037;-69
2021/05/04 02:31:16;;;;;;;7.38;1.85;;;10.90;99.90;;;;;;4193477;28;20082;-70
2021/05/04 02:33:16;;;;;;;3.05;1.45;;;10.80;99.90;;;;;;4194522;28;20040;-69
2021/05/04 02:35:17;;;;;;;3.53;1.50;;;10.70;99.90;;;;;;4191791;28;20540;-69
2021/05/04 02:37:18;;;;;;;4.78;1.90;;;10.70;99.90;;;;;;4194375;28;20468;-69
2021/05/04 02:39:19;;;;;;;3.70;1.23;;;10.60;99.90;;;;;;4192526;28;20504;-69
2021/05/04 02:41:19;;;;;;;3.58;1.65;;;10.60;99.90;;;;;;4193184;28;20024;-69
2021/05/04 02:43:20;;;;;;;2.42;1.13;;;10.50;99.90;;;;;;4191816;28;20075;-69
2021/05/04 02:45:20;;;;;;;3.58;1.25;;;10.60;99.90;;;;;;4193828;28;20037;-69
2021/05/04 02:47:21;;;;;;;5.38;1.25;;;10.50;99.90;;;;;;4192284;28;20029;-69
2021/05/04 02:49:22;;;;;;;3.15;1.30;;;10.50;99.90;;;;;;4193828;28;20033;-69
2021/05/04 02:51:23;;;;;;;4.47;1.83;;;10.40;99.90;;;;;;4194111;28;20036;-69
2021/05/04 02:53:23;;;;;;;4.05;1.55;;;10.40;99.90;;;;;;4192228;28;20048;-69
2021/05/04 02:55:25;;;;;;;4.07;1.52;;;10.30;99.90;;;;;;4194243;28;20238;-69
2021/05/04 02:57:26;;;;;;;2.20;1.30;;;10.40;99.90;;;;;;4192366;28;20040;-69
2021/05/04 02:59:26;;;;;;;1.77;1.33;;;10.30;99.90;;;;;;4194150;28;20032;-69
2021/05/04 03:01:27;;;;;;;4.13;1.63;;;10.30;99.90;;;;;;4194011;28;20419;-69
2021/05/04 03:03:27;;;;;;;3.20;1.50;;;10.20;99.90;;;;;;4193838;28;20532;-69
2021/05/04 03:05:28;;;;;;;5.13;1.17;;;10.20;99.90;;;;;;4193239;28;20036;-69
2021/05/04 03:07:29;;;;;;;2.20;1.45;;;10.20;99.90;;;;;;4193815;28;20052;-69
2021/05/04 03:09:29;;;;;;;3.40;1.70;;;10.20;99.90;;;;;;4192000;28;20039;-69
2021/05/04 03:11:30;;;;;;;3.80;1.38;;;10.10;99.90;;;;;;4192031;28;20107;-69
2021/05/04 03:13:32;;;;;;;4.80;1.65;;;10.00;99.90;;;;;;4193570;28;20032;-68
2021/05/04 03:15:33;;;;;;;4.25;1.60;;;10.00;99.90;;;;;;4193137;28;20124;-69
2021/05/04 03:17:33;;;;;;;3.63;1.75;;;10.00;99.90;;;;;;4193034;28;20060;-69
2021/05/04 03:19:34;;;;;;;3.63;1.50;;;9.90;99.90;;;;;;4193078;28;20085;-69
2021/05/04 03:21:35;;;;;;;1.70;1.27;;;9.80;99.90;;;;;;4192820;28;20115;-69
2021/05/04 03:23:35;;;;;;;3.15;1.30;;;9.80;99.90;;;;;;4192873;28;20025;-69
2021/05/04 03:25:36;;;;;;;3.28;1.67;;;9.70;99.90;;;;;;4192621;28;20037;-68
2021/05/04 03:27:37;;;;;;;1.73;1.20;;;9.70;99.90;;;;;;4191328;28;20086;-69
2021/05/04 03:29:37;;;;;;;10.55;1.40;;;9.60;99.90;;;;;;4192093;28;20044;-69
2021/05/04 03:31:38;;;;;;;2.90;1.50;;;9.50;99.90;;;;;;4192409;28;20059;-68
2021/05/04 03:33:39;;;;;;;2.85;1.40;;;9.50;99.90;;;;;;4191109;28;20439;-68
2021/05/04 03:35:40;;;;;;;6.38;1.48;;;9.50;99.90;;;;;;4192577;28;20102;-69
2021/05/04 03:37:40;;;;;;;5.43;1.40;;;9.50;99.90;;;;;;4192453;28;20059;-69
2021/05/04 03:39:41;;;;;;;2.45;1.45;;;9.50;99.90;;;;;;4192659;28;20037;-69
2021/05/04 03:41:41;;;;;;;1.75;1.00;;;9.50;99.90;;;;;;4190623;28;20722;-69
2021/05/04 03:43:42;;;;;;;3.53;1.30;;;9.50;99.90;;;;;;4191864;28;20159;-68
2021/05/04 03:45:43;;;;;;;4.63;1.60;;;9.50;99.90;;;;;;4190412;28;20040;-68
2021/05/04 03:47:45;;;;;;;3.88;1.40;;;9.50;99.90;;;;;;4192198;28;20041;-69
2021/05/04 03:49:46;;;;;;;;;;;9.50;99.90;;;;;;4193153;28;20130;-69
2021/05/04 03:51:46;;;;;;;4.65;1.73;;;9.50;99.90;;;;;;4199152;28;19938;-69
2021/05/04 03:53:47;;;;;;;3.95;1.30;;;9.50;99.90;;;;;;4192649;28;20060;-69
2021/05/04 03:55:48;;;;;;;3.50;1.20;;;9.50;99.90;;;;;;4188499;28;20304;-69
2021/05/04 03:57:48;;;;;;;3.40;1.60;;;9.60;99.90;;;;;;4192126;28;20036;-69
2021/05/04 03:59:50;;;;;;;2.42;1.35;;;9.60;99.90;;;;;;4192548;28;20036;-69
2021/05/04 04:01:50;;;;;;;1.77;1.35;;;9.60;99.90;;;;;;4192251;28;20070;-69
2021/05/04 04:03:51;;;;;;;3.58;1.33;;;9.60;99.90;;;;;;4192419;28;20037;-69
2021/05/04 04:05:53;;;;;;;2.20;1.40;;;9.60;99.90;;;;;;4192130;28;20549;-69
2021/05/04 04:07:53;;;;;;;2.63;1.05;;;9.70;99.90;;;;;;4190205;28;20527;-69
2021/05/04 04:09:54;;;;;;;3.28;1.60;;;9.70;99.90;;;;;;4192044;28;22234;-69
2021/05/04 04:11:54;;;;;;;1.40;1.20;;;9.60;99.90;;;;;;4192129;28;20044;-69
2021/05/04 04:13:55;;;;;;;3.10;1.40;;;9.70;99.90;;;;;;4192643;28;20040;-69
2021/05/04 04:15:55;;;;;;;3.25;1.17;;;9.70;99.90;;;;;;4191980;28;20040;-69
2021/05/04 04:17:56;;;;;;;2.22;1.30;;;9.80;99.90;;;;;;4190756;28;20033;-69
2021/05/04 04:19:57;;;;;;;3.10;1.30;;;9.80;99.90;;;;;;4190893;28;20427;-69
2021/05/04 04:21:58;;;;;;;3.28;1.13;;;9.80;99.90;;;;;;4192127;28;20037;-69
2021/05/04 04:23:58;;;;;;;4.60;1.48;;;9.70;99.90;;;;;;4192197;28;20098;-69
2021/05/04 04:25:59;;;;;;;2.47;1.48;;;9.70;99.90;;;;;;4191674;28;20043;-69
2021/05/04 04:28:00;;;;;;;4.20;1.38;;;9.80;99.90;;;;;;4191260;28;20025;-69
2021/05/04 04:30:01;;;;;;;3.85;1.13;;;9.80;99.90;;;;;;4191983;28;20033;-69
2021/05/04 04:32:02;;;;;;;5.55;1.38;;;9.80;99.90;;;;;;4190438;28;20699;-69
2021/05/04 04:34:03;;;;;;;2.92;1.45;;;9.90;99.90;;;;;;4190043;28;20043;-69
2021/05/04 04:36:04;;;;;;;2.67;1.45;;;9.90;99.90;;;;;;4191703;28;20068;-69
2021/05/04 04:38:05;;;;;;;5.18;1.50;;;9.90;99.90;;;;;;4191175;28;20036;-69
2021/05/04 04:40:07;;;;;;;3.00;1.20;;;9.90;99.90;;;;;;4181898;28;20051;-69
2021/05/04 04:42:07;;;;;;;1.77;1.33;;;9.90;99.90;;;;;;4185811;28;20048;-69
2021/05/04 04:44:09;;;;;;;2.65;1.20;;;9.90;99.90;;;;;;4187149;28;20051;-69
2021/05/04 04:46:09;;;;;;;2.13;1.25;;;10.00;99.90;;;;;;4186561;28;20032;-69
2021/05/04 04:48:10;;;;;;;2.45;1.08;;;10.00;99.90;;;;;;4187152;28;20140;-69
2021/05/04 04:50:11;;;;;;;2.30;1.35;;;10.00;99.90;;;;;;4186821;28;20094;-70
2021/05/04 04:52:11;;;;;;;1.63;1.15;;;10.00;99.90;;;;;;4186511;28;20033;-69
2021/05/04 04:54:12;;;;;;;3.40;1.48;;;10.00;99.90;;;;;;4185347;28;20622;-69
2021/05/04 04:56:13;;;;;;;4.40;1.40;;;10.00;99.90;;;;;;4184361;28;20148;-69
2021/05/04 04:58:14;;;;;;;2.10;1.30;;;10.00;99.90;;;;;;4186946;28;20352;-69
2021/05/04 05:00:16;;;;;;;4.70;1.30;;;10.00;99.90;;;;;;4187307;28;20090;-69
2021/05/04 05:02:19;;;;;;;4.03;1.42;;;10.10;99.90;;;;;;4186790;28;20630;-69
2021/05/04 05:04:20;;;;;;;8.55;1.00;;;10.10;99.90;;;;;;4187117;28;20033;-69
2021/05/04 05:06:21;;;;;;;2.58;1.05;;;10.00;99.90;;;;;;4186768;28;20047;-69
2021/05/04 05:08:21;;;;;;;4.43;1.30;;;10.10;99.90;;;;;;4185491;28;20025;-69
2021/05/04 05:10:22;;;;;;;4.40;1.25;;;10.10;99.90;;;;;;4185100;28;20122;-69
2021/05/04 05:12:24;;;;;;;5.38;1.27;;;10.10;99.90;;;;;;4185128;28;20060;-69
2021/05/04 05:14:24;;;;;;;3.53;1.63;;;10.20;99.90;;;;;;4187093;28;20388;-69
2021/05/04 05:16:26;;;;;;;5.60;1.58;;;10.20;99.90;;;;;;4186134;28;20090;-69
2021/05/04 05:18:26;;;;;;;3.58;1.20;;;10.20;99.90;;;;;;4186710;28;20226;-69
2021/05/04 05:20:27;;;;;;;8.07;1.20;;;10.20;99.90;;;;;;4186934;28;20064;-69
2021/05/04 05:22:28;;;;;;;2.10;1.30;;;10.20;99.90;;;;;;4182119;28;20439;-69
2021/05/04 05:24:29;;;;;;;2.05;1.23;;;10.20;99.90;;;;;;4179766;28;20432;-69
2021/05/04 05:26:30;;;;;;;3.22;1.30;;;10.20;99.90;;;;;;4184779;28;20043;-69
2021/05/04 05:28:32;;;;;;;4.38;1.20;;;10.20;99.90;;;;;;4186806;28;20036;-69
2021/05/04 05:30:33;;;;;;;4.90;1.45;;;10.20;99.90;;;;;;4185702;28;20045;-69
2021/05/04 05:32:35;;;;;;;2.93;1.20;;;10.20;99.90;;;;;;4186505;28;20041;-69
2021/05/04 05:34:35;;;;;;;2.83;1.38;;;10.20;99.90;;;;;;4178729;28;20300;-69
2021/05/04 05:36:36;;;;;;;2.00;1.30;;;10.20;99.90;;;;;;4173391;28;20029;-69
2021/05/04 05:38:37;;;;;;;2.72;1.50;;;10.10;99.90;;;;;;4190779;28;20087;-69
2021/05/04 05:40:37;;;;;;;1.90;1.10;;;10.00;99.90;;;;;;4190557;28;20056;-69
2021/05/04 05:42:38;;;;;;;1.58;1.10;;;10.00;99.90;;;;;;4191237;28;20522;-69
2021/05/04 05:44:38;;;;;;;3.42;1.35;;;10.00;99.90;;;;;;4191175;28;20048;-69
2021/05/04 05:46:40;;;;;;;1.85;1.30;;;10.00;99.90;;;;;;4189749;28;20178;-69
2021/05/04 05:48:42;;;;;;;3.08;1.20;;;10.00;99.90;;;;;;4191097;28;20028;-69
2021/05/04 05:50:42;;;;;;;2.90;1.37;;;10.00;99.90;;;;;;4189376;28;20047;-69
2021/05/04 05:52:43;;;;;;;2.05;1.27;;;10.00;99.90;;;;;;4190243;28;20039;-69
2021/05/04 05:54:43;;;;;;;2.75;1.30;;;10.10;99.90;;;;;;4189571;28;20488;-68
2021/05/04 05:56:44;;;;;;;3.75;1.42;;;10.10;99.90;;;;;;4190153;28;21507;-69
2021/05/04 05:58:45;;;;;;;1.30;0.98;;;10.00;99.90;;;;;;4187698;28;20037;-69
2021/05/04 06:00:45;;;;;;;3.80;1.27;;;10.10;99.90;;;;;;4189374;28;20060;-69
2021/05/04 06:02:46;;;;;;;4.38;1.33;;;10.10;99.90;;;;;;4188808;28;20048;-69
2021/05/04 06:04:47;;;;;;;1.77;1.25;;;10.10;99.90;;;;;;4187698;28;20119;-68
2021/05/04 06:06:47;;;;;;;3.75;1.38;;;10.10;99.90;;;;;;4191678;28;20063;-69
2021/05/04 06:08:48;;;;;;;3.67;1.70;;;10.20;99.90;;;;;;4192597;28;20090;-69
2021/05/04 06:10:49;;;;;;;4.03;1.55;;;10.30;99.90;;;;;;4191929;28;20044;-69
2021/05/04 06:13:05;;;;;;;3.70;1.13;;;10.30;99.90;;;;;;4192290;28;20025;-69
2021/05/04 06:15:07;;;;;;;2.65;1.20;;;10.40;99.90;;;;;;4193250;28;20044;-69
2021/05/04 06:17:07;;;;;;;4.47;1.15;;;10.40;99.90;;;;;;4192306;28;20369;-69
2021/05/04 06:19:08;;;;;;;2.00;1.10;;;10.40;99.90;;;;;;4193536;28;20029;-69
2021/05/04 06:21:08;;;;;;;3.95;1.60;;;10.40;99.90;;;;;;4191577;28;20094;-69
2021/05/04 06:23:09;;;;;;;2.53;1.45;;;10.40;99.90;;;;;;4190850;28;20028;-69
2021/05/04 06:25:10;;;;;;;5.20;1.40;;;10.50;99.90;;;;;;4192731;28;20052;-69
2021/05/04 06:27:11;;;;;;;2.22;1.30;;;10.50;99.90;;;;;;4190807;28;20028;-69
2021/05/04 06:29:12;;;;;;;6.60;1.70;;;10.50;99.90;;;;;;4191433;28;20113;-69
2021/05/04 06:31:14;;;;;;;3.33;1.27;;;10.50;99.90;;;;;;4193486;28;20120;-70
2021/05/04 06:33:15;;;;;;;;;;;10.50;99.90;;;;;;4201363;28;20059;-70
2021/05/04 06:35:18;;;;;;;3.65;1.13;;;10.60;99.90;;;;;;4192802;28;19939;-70
2021/05/04 06:37:19;;;;;;;3.72;1.48;;;10.70;99.90;;;;;;4191039;28;20051;-70
2021/05/04 06:39:19;;;;;;;3.25;1.70;;;10.60;99.90;;;;;;4193095;28;20041;-70
2021/05/04 06:41:20;;;;;;;3.80;1.42;;;10.70;99.90;;;;;;4192655;28;20052;-70
2021/05/04 06:43:22;;;;;;;4.00;1.45;;;10.70;99.90;;;;;;4193157;28;20052;-70
2021/05/04 06:45:23;;;;;;;2.42;1.15;;;10.80;99.90;;;;;;4191319;28;20549;-70
2021/05/04 06:47:23;;;;;;;2.85;1.23;;;10.80;99.90;;;;;;4191859;28;20032;-70
2021/05/04 06:49:24;;;;;;;8.10;1.67;;;10.70;99.90;;;;;;4191044;28;20037;-70
2021/05/04 06:51:24;;;;;;;3.60;1.17;;;10.80;99.90;;;;;;4191722;28;20024;-70
2021/05/04 06:53:26;;;;;;;1.80;1.30;;;10.80;99.90;;;;;;4192359;28;20028;-70
2021/05/04 06:55:27;;;;;;;3.47;1.10;;;10.80;99.90;;;;;;4191566;28;20178;-68
2021/05/04 06:57:27;;;;;;;1.92;1.10;;;10.80;99.90;;;;;;4192748;28;20119;-68
2021/05/04 06:59:28;;;;;;;4.65;1.40;;;10.80;99.90;;;;;;4187964;28;20036;-68
2021/05/04 07:01:29;;;;;;;2.55;1.10;;;10.80;99.90;;;;;;4191821;28;20036;-68
2021/05/04 07:03:29;;;;;;;8.70;1.35;;;10.90;99.90;;;;;;4192713;28;20036;-68
2021/05/04 07:05:31;;;;;;;2.42;1.08;;;10.90;99.90;;;;;;4191814;28;20024;-68
2021/05/04 07:07:31;;;;;;;3.50;1.20;;;10.90;99.90;;;;;;4191730;28;20033;-68
2021/05/04 07:09:32;;;;;;;2.35;1.23;;;10.90;99.90;;;;;;4189679;28;20032;-68
2021/05/04 07:11:33;;;;;;;1.25;1.00;;;11.00;99.90;;;;;;4188994;28;20044;-68
2021/05/04 07:13:33;;;;;;;3.40;1.52;;;11.00;99.90;;;;;;4189762;28;22776;-68
2021/05/04 07:15:34;;;;;;;2.22;1.00;;;10.90;99.90;;;;;;4190040;28;20043;-68
2021/05/04 07:17:35;;;;;;;4.13;1.13;;;10.90;99.90;;;;;;4187635;28;20435;-68
2021/05/04 07:19:38;;;;;;;4.57;1.20;;;10.90;99.90;;;;;;4187593;28;20033;-68
2021/05/04 07:21:58;;;;;;;2.65;1.25;;;10.80;99.90;;;;;;4186437;28;20102;-68
2021/05/04 07:24:17;;;;;;;1.95;1.00;;;10.90;99.90;;;;;;4187757;28;20151;-68
2021/05/04 07:26:17;;;;;;;1.75;1.30;;;10.90;99.90;;;;;;4189162;28;20391;-68
2021/05/04 07:28:18;;;;;;;1.70;1.38;;;10.90;99.90;;;;;;4190163;28;20056;-69
2021/05/04 07:30:19;;;;;;;1.58;1.33;;;10.90;99.90;;;;;;4187498;28;20039;-69
2021/05/04 07:32:20;;;;;;;4.13;1.40;;;10.90;99.90;;;;;;4189953;28;20337;-69
2021/05/04 07:34:21;;;;;;;7.93;1.50;;;10.90;99.90;;;;;;4191598;28;20032;-69
2021/05/04 07:36:21;;;;;;;7.00;1.35;;;10.90;99.90;;;;;;4190486;28;20017;-69
2021/05/04 07:38:22;;;;;;;2.20;1.50;;;10.90;99.90;;;;;;4189885;28;20418;-70
2021/05/04 07:40:23;;;;;;;3.00;1.30;;;10.90;99.90;;;;;;4189192;28;20036;-69
2021/05/04 07:42:23;;;;;;;2.95;1.20;;;11.00;99.90;;;;;;4190137;28;20032;-70
2021/05/04 07:44:25;;;;;;;1.20;1.02;;;11.00;99.90;;;;;;4189838;28;20075;-69
2021/05/04 07:46:26;;;;;;;3.03;1.40;;;11.00;99.90;;;;;;4184966;28;20068;-70
2021/05/04 07:48:26;;;;;;;2.88;1.23;;;11.10;99.90;;;;;;4187074;28;20031;-69
2021/05/04 07:50:28;;;;;;;1.63;0.95;;;11.10;99.90;;;;;;4185402;28;20043;-70
2021/05/04 07:52:29;;;;;;;6.53;1.35;;;11.10;99.90;;;;;;4188472;28;20078;-70
2021/05/04 07:54:31;;;;;;;1.60;1.20;;;11.10;99.90;;;;;;4189711;28;20430;-70
2021/05/04 07:56:32;;;;;;;3.60;1.25;;;11.10;99.90;;;;;;4189420;28;20032;-69
2021/05/04 07:58:33;;;;;;;3.95;1.23;;;11.00;99.90;;;;;;4188374;28;20036;-71
2021/05/04 08:00:35;;;;;;;3.88;1.10;;;11.00;99.90;;;;;;4190119;28;20040;-70
2021/05/04 08:02:36;;;;;;;2.58;1.17;;;11.00;99.90;;;;;;4190662;28;20076;-70
2021/05/04 08:04:36;;;;;;;2.45;1.08;;;10.90;99.90;;;;;;4188251;28;20053;-71
2021/05/04 08:06:38;;;;;;;2.03;1.23;;;10.90;99.90;;;;;;4189348;28;20074;-70
2021/05/04 08:08:39;;;;;;;2.85;1.02;;;11.00;99.90;;;;;;4190375;28;20032;-71
2021/05/04 08:10:58;;;;;;;3.50;1.08;;;10.90;99.90;;;;;;4186648;28;20595;-71
2021/05/04 08:13:19;;;;;;;1.70;0.93;;;10.90;99.90;;;;;;4188444;28;20043;-71
2021/05/04 08:15:22;;;;;;;1.80;0.85;;;10.90;99.90;;;;;;4188035;28;20029;-71
2021/05/04 08:17:25;;;;;;;;;;;11.00;99.90;;;;;;4187988;28;20033;-70
2021/05/04 08:19:26;;;;;;;5.00;1.23;;;11.00;99.90;;;;;;4189552;28;20329;-71
2021/05/04 08:21:32;;;;;;;2.20;1.23;;;11.10;99.90;;;;;;4188207;28;20037;-71
2021/05/04 08:23:33;;;;;;;2.28;0.85;;;11.10;99.90;;;;;;4186154;28;20569;-71
2021/05/04 08:25:34;;;;;;;2.28;1.25;;;11.20;99.90;;;;;;4188138;28;20048;-71
2021/05/04 08:27:34;;;;;;;2.75;1.25;;;11.20;99.90;;;;;;4187039;28;20046;-71
2021/05/04 08:29:35;;;;;;;2.35;1.40;;;11.30;99.90;;;;;;4188647;28;20037;-71
2021/05/04 08:31:36;;;;;;;2.17;1.08;;;11.20;99.90;;;;;;4188622;28;20036;-71
2021/05/04 08:33:36;;;;;;;3.25;1.00;;;11.30;99.90;;;;;;4187893;28;20115;-71
2021/05/04 08:35:37;;;;;;;6.80;1.80;;;11.30;99.90;;;;;;4187119;28;20037;-70
2021/05/04 08:37:38;;;;;;;8.18;1.52;;;11.40;99.90;;;;;;4186993;28;21696;-70
2021/05/04 08:39:38;;;;;;;5.63;1.75;;;11.30;99.90;;;;;;4186837;28;20521;-70
2021/05/04 08:41:42;;;;;;;4.53;1.60;;;11.40;99.90;;;;;;4187723;28;20511;-70
2021/05/04 08:43:48;;;;;;;4.03;1.63;;;11.40;99.90;;;;;;4189560;28;20733;-71
2021/05/04 08:45:59;;;;;;;5.53;1.58;;;11.40;99.90;;;;;;4186092;28;20391;-71
2021/05/04 08:48:01;;;;;;;5.78;1.55;;;11.40;99.90;;;;;;4186712;28;20089;-70
2021/05/04 08:50:02;;;;;;;5.85;1.27;;;11.40;99.90;;;;;;4189770;28;20324;-70
2021/05/04 08:52:03;;;;;;;3.50;1.65;;;11.40;99.90;;;;;;4186176;28;20037;-71
2021/05/04 08:54:04;;;;;;;3.92;1.45;;;11.50;99.90;;;;;;4187508;28;20047;-71
2021/05/04 08:56:05;;;;;;;6.47;1.50;;;11.50;99.90;;;;;;4188772;28;20036;-71
2021/05/04 08:58:06;;;;;;;2.70;1.33;;;11.60;99.90;;;;;;4189206;28;20082;-71
2021/05/04 09:00:14;;;;;;;3.90;1.42;;;11.60;99.90;;;;;;4189483;28;20032;-71
2021/05/04 09:02:15;;;;;;;5.75;1.65;;;11.70;99.90;;;;;;4189005;28;20047;-71
2021/05/04 09:04:39;;;;;;;3.85;1.20;;;11.80;99.90;;;;;;4188996;28;20044;-71
2021/05/04 09:06:46;;;;;;;2.70;1.20;;;11.90;99.90;;;;;;4185728;28;20033;-71
2021/05/04 09:09:00;;;;;;;2.85;1.20;;;12.10;99.90;;;;;;4187437;28;20070;-71
2021/05/04 09:11:21;;;;;;;5.32;1.83;;;12.20;99.90;;;;;;4188355;28;20025;-71
2021/05/04 09:13:36;;;;;;;9.30;2.20;;;12.40;99.90;;;;;;4185923;28;20361;-71
2021/05/04 09:15:57;;;;;;;4.18;1.42;;;12.60;99.90;;;;;;4189584;28;20024;-71
2021/05/04 09:18:06;;;;;;;6.43;1.55;;;12.70;99.90;;;;;;4187826;28;20339;-70
2021/05/04 09:20:24;;;;;;;7.40;2.05;;;12.70;99.90;;;;;;4189161;28;20040;-71
2021/05/04 09:22:45;;;;;;;4.22;1.40;;;12.80;99.90;;;;;;4187567;28;20094;-71
2021/05/04 09:24:46;;;;;;;7.70;1.90;;;12.80;99.90;;;;;;4185397;28;20486;-71
2021/05/04 09:26:48;;;;;;;8.68;2.47;;;12.80;99.90;;;;;;4187335;28;20035;-71
2021/05/04 09:28:50;;;;;;;7.38;2.13;;;12.70;99.90;;;;;;4186698;28;20036;-71
2021/05/04 09:30:56;;;;;;;10.07;2.28;;;12.80;99.90;;;;;;4186790;28;20577;-71
2021/05/04 09:33:07;;;;;;;8.95;2.13;;;12.80;99.90;;;;;;4188358;28;20033;-71
2021/05/04 09:35:09;;;;;;;9.80;1.90;;;12.80;99.90;;;;;;4185997;28;20396;-71
2021/05/04 09:37:20;;;;;;;6.50;2.03;;;12.90;99.90;;;;;;4182033;28;20290;-71
2021/05/04 09:39:26;;;;;;;7.50;2.05;;;12.90;99.90;;;;;;4186551;28;20028;-71
2021/05/04 09:41:30;;;;;;;7.68;1.90;;;13.00;99.90;;;;;;4186749;28;20074;-71
2021/05/04 09:43:38;;;;;;;9.45;2.30;;;13.00;99.90;;;;;;4195299;28;20059;-71
2021/05/04 09:45:59;;;;;;;10.18;2.72;;;12.90;99.90;;;;;;4189781;28;21855;-71
2021/05/04 09:48:16;;;;;;;9.63;2.42;;;13.00;99.90;;;;;;4190713;28;20052;-71
2021/05/04 09:50:17;;;;;;;6.97;2.25;;;12.90;99.90;;;;;;4190557;28;20097;-71
2021/05/04 09:52:45;;;;;;;8.27;2.00;;;12.80;99.90;;;;;;4189814;28;20065;-71
2021/05/04 09:54:46;;;;;;;7.38;1.80;;;12.80;99.90;;;;;;4190555;28;20155;-71
2021/05/04 09:56:48;;;;;;;9.43;1.88;;;12.80;99.90;;;;;;4191475;28;20763;-71
2021/05/04 09:58:51;;;;;;;8.57;1.95;;;12.80;99.90;;;;;;4190297;28;20048;-71
2021/05/04 10:00:52;;;;;;;15.27;2.58;;;12.80;99.90;;;;;;4188820;28;20089;-71
2021/05/04 10:02:54;;;;;;;9.77;2.25;;;12.80;99.90;;;;;;4190868;28;20120;-71
2021/05/04 10:04:54;;;;;;;8.20;2.13;;;12.70;99.90;;;;;;4192344;28;20032;-71
2021/05/04 10:06:55;;;;;;;13.30;2.97;;;12.70;99.90;;;;;;4191267;28;20120;-71
2021/05/04 10:08:57;;;;;;;11.90;2.15;;;12.60;99.90;;;;;;4190494;28;20102;-71
2021/05/04 10:11:00;;;;;;;12.05;2.42;;;12.40;99.90;;;;;;4190272;28;20033;-71
2021/05/04 10:13:01;;;;;;;8.75;2.30;;;12.30;99.90;;;;;;4191328;28;20036;-71
2021/05/04 10:15:08;;;;;;;9.68;2.47;;;12.30;99.90;;;;;;4189577;28;20076;-71
2021/05/04 10:17:09;;;;;;;10.55;2.50;;;12.30;99.90;;;;;;4191545;28;20040;-71
2021/05/04 10:19:10;;;;;;;12.95;2.97;;;12.30;99.90;;;;;;4190413;28;20040;-71
2021/05/04 10:21:10;;;;;;;8.10;1.77;;;12.20;99.90;;;;;;4189940;28;20044;-71
2021/05/04 10:23:12;;;;;;;10.20;2.30;;;12.20;99.90;;;;;;4188123;28;20036;-71
2021/05/04 10:25:20;;;;;;;6.80;2.00;;;12.20;99.90;;;;;;4190215;28;20116;-72
2021/05/04 10:27:22;;;;;;;11.25;1.50;;;12.30;99.90;;;;;;4191107;28;20128;-71
2021/05/04 10:29:23;;;;;;;11.77;2.28;;;12.40;99.90;;;;;;4190473;28;20074;-71
2021/05/04 10:31:44;;;;;;;6.85;1.90;;;12.60;99.90;;;;;;4189817;28;20037;-71
2021/05/04 10:33:45;;;;;;;15.35;2.80;;;12.60;99.90;;;;;;4190684;28;20047;-71
2021/05/04 10:35:48;;;;;;;7.55;2.00;;;12.70;99.90;;;;;;4189099;28;20041;-71
2021/05/04 10:38:00;;;;;;;14.68;2.75;;;12.80;99.90;;;;;;4190201;28;20416;-71